createdAt,value
2023-02-11T00:03:30.380Z,6.85
2023-02-11T00:08:32.765Z,6.05
2023-02-11T00:13:36.154Z,6.60
2023-02-11T00:18:38.822Z,6.97
2023-02-11T00:23:41.534Z,6.85
2023-02-11T00:28:45.458Z,5.90
2023-02-11T00:33:48.628Z,7.15
2023-02-11T00:38:53.895Z,6.32
2023-02-11T00:43:57.139Z,6.35
2023-02-11T00:49:00.094Z,6.38
2023-02-11T00:54:03.369Z,6.50
2023-02-11T00:59:05.894Z,6.85
2023-02-11T01:04:08.668Z,6.30
2023-02-11T01:09:11.606Z,6.43
2023-02-11T01:14:14.782Z,7.13
2023-02-11T01:19:17.832Z,6.57
2023-02-11T01:24:21.640Z,7.28
2023-02-11T01:29:24.928Z,7.82
2023-02-11T01:34:30.114Z,5.78
2023-02-11T01:39:35.189Z,7.80
2023-02-11T01:44:40.970Z,7.00
2023-02-11T01:49:48.054Z,6.57
2023-02-11T01:55:12.928Z,6.43
2023-02-11T02:00:37.343Z,7.15
2023-02-11T02:05:45.145Z,7.05
2023-02-11T02:10:50.360Z,7.78
2023-02-11T02:15:56.994Z,6.65
2023-02-11T02:21:25.381Z,7.07
2023-02-11T02:26:34.145Z,5.28
2023-02-11T02:31:42.444Z,6.35
2023-02-11T02:36:56.337Z,6.00
2023-02-11T02:42:00.170Z,7.00
2023-02-11T02:47:03.186Z,7.45
2023-02-11T02:52:29.333Z,7.03
2023-02-11T02:57:41.330Z,7.03
2023-02-11T03:03:03.779Z,5.80
2023-02-11T03:08:13.346Z,5.70
2023-02-11T03:13:18.279Z,6.53
2023-02-11T03:18:26.558Z,5.97
2023-02-11T03:23:36.260Z,5.10
2023-02-11T03:29:07.915Z,5.30
2023-02-11T03:34:36.712Z,5.72
2023-02-11T03:39:45.978Z,5.38
2023-02-11T03:44:54.595Z,5.53
2023-02-11T03:49:59.825Z,5.95
2023-02-11T03:55:10.751Z,4.75
2023-02-11T04:00:14.331Z,3.83
2023-02-11T04:05:17.009Z,4.18
2023-02-11T04:10:20.934Z,5.20
2023-02-11T04:15:23.791Z,5.13
2023-02-11T04:20:26.712Z,4.75
2023-02-11T04:25:29.433Z,5.40
2023-02-11T04:30:32.353Z,5.93
2023-02-11T04:35:35.203Z,3.70
2023-02-11T04:40:38.938Z,4.97
2023-02-11T04:45:41.600Z,4.20
2023-02-11T04:50:43.916Z,4.85
2023-02-11T04:55:51.386Z,4.20
2023-02-11T05:00:54.564Z,5.05
2023-02-11T05:05:57.538Z,4.55
2023-02-11T05:11:02.752Z,4.43
2023-02-11T05:16:06.551Z,4.82
2023-02-11T05:21:15.602Z,4.95
2023-02-11T05:26:20.455Z,4.75
2023-02-11T05:31:23.194Z,4.22
2023-02-11T05:36:26.649Z,4.32
2023-02-11T05:41:30.506Z,4.93
2023-02-11T05:46:33.440Z,4.65
2023-02-11T05:51:35.825Z,4.80
2023-02-11T05:56:39.256Z,4.88
2023-02-11T06:01:42.875Z,3.78
2023-02-11T06:06:45.217Z,5.38
2023-02-11T06:11:48.158Z,5.18
2023-02-11T06:16:51.103Z,5.00
2023-02-11T06:21:53.439Z,4.85
2023-02-11T06:26:56.905Z,4.82
2023-02-11T06:31:59.355Z,4.95
2023-02-11T06:37:01.989Z,5.28
2023-02-11T06:42:06.983Z,5.05
2023-02-11T06:47:11.359Z,4.68
2023-02-11T06:52:13.766Z,4.82
2023-02-11T06:57:17.179Z,4.97
2023-02-11T07:02:21.105Z,5.03
2023-02-11T07:07:24.351Z,4.90
2023-02-11T07:12:27.277Z,5.63
2023-02-11T07:17:30.291Z,5.32
2023-02-11T07:22:34.868Z,5.60
2023-02-11T07:27:37.593Z,6.05
2023-02-11T07:32:39.901Z,5.25
2023-02-11T07:37:44.378Z,5.20
2023-02-11T07:42:46.771Z,6.10
2023-02-11T07:47:50.125Z,5.20
2023-02-11T07:52:52.448Z,5.80
2023-02-11T07:57:55.328Z,5.72
2023-02-11T08:02:58.579Z,5.60
2023-02-11T08:08:00.927Z,6.32
2023-02-11T08:13:03.247Z,6.22
2023-02-11T08:18:06.973Z,6.47
2023-02-11T08:23:09.398Z,4.90
2023-02-11T08:28:12.892Z,5.38
2023-02-11T08:33:15.304Z,5.57
2023-02-11T08:38:18.668Z,5.47
2023-02-11T08:43:21.651Z,5.75
2023-02-11T08:48:25.570Z,4.70
2023-02-11T08:53:28.381Z,4.88
2023-02-11T08:58:31.627Z,4.53
2023-02-11T09:03:34.412Z,4.95
2023-02-11T09:08:40.450Z,4.60
2023-02-11T09:13:44.488Z,4.65
2023-02-11T09:18:48.032Z,5.13
2023-02-11T09:23:50.986Z,4.53
2023-02-11T09:28:54.089Z,4.40
2023-02-11T09:34:00.584Z,4.93
2023-02-11T09:39:05.496Z,4.75
2023-02-11T09:44:18.480Z,4.40
2023-02-11T09:49:27.312Z,3.85
2023-02-11T09:54:56.252Z,4.07
2023-02-11T09:59:58.584Z,4.28
2023-02-11T10:05:29.384Z,5.68
2023-02-11T10:10:58.512Z,5.10
2023-02-11T10:16:14.208Z,5.18
2023-02-11T10:21:27.048Z,4.88
2023-02-11T10:26:32.736Z,3.88
2023-02-11T10:31:42.633Z,4.18
2023-02-11T10:36:45.813Z,4.82
2023-02-11T10:42:02.520Z,4.97
2023-02-11T10:47:28.838Z,4.55
2023-02-11T10:52:32.617Z,4.50
2023-02-11T10:57:45.479Z,4.40
2023-02-11T11:02:56.367Z,4.72
2023-02-11T11:08:10.133Z,4.57
2023-02-11T11:13:38.173Z,4.63
2023-02-11T11:18:44.627Z,4.38
2023-02-11T11:23:59.376Z,4.90
2023-02-11T11:29:10.814Z,4.30
2023-02-11T11:34:34.365Z,4.28
2023-02-11T11:39:36.905Z,4.15
2023-02-11T11:44:43.098Z,4.47
2023-02-11T11:50:04.284Z,4.93
2023-02-11T11:55:25.544Z,4.00
2023-02-11T12:00:36.544Z,4.20
2023-02-11T12:06:03.689Z,4.50
2023-02-11T12:11:30.500Z,3.20
2023-02-11T12:17:18.544Z,4.05
2023-02-11T12:23:00.449Z,3.83
2023-02-11T12:28:25.983Z,3.95
2023-02-11T12:33:59.330Z,3.97
2023-02-11T12:39:17.522Z,3.97
2023-02-11T12:45:09.452Z,4.18
2023-02-11T12:50:39.246Z,4.35
2023-02-11T12:55:46.642Z,4.47
2023-02-11T13:01:09.943Z,4.20
2023-02-11T13:06:17.998Z,4.15
2023-02-11T13:11:26.994Z,3.70
2023-02-11T13:16:43.240Z,3.97
2023-02-11T13:22:17.049Z,4.10
2023-02-11T13:27:44.160Z,5.22
2023-02-11T13:32:56.624Z,5.40
2023-02-11T13:43:22.448Z,4.38
2023-02-11T13:48:32.759Z,5.20
2023-02-11T13:53:54.555Z,5.82
2023-02-11T13:58:59.642Z,5.45
2023-02-11T14:04:42.530Z,5.53
2023-02-11T14:09:45.712Z,6.35
2023-02-11T14:15:07.721Z,5.93
2023-02-11T14:20:34.928Z,7.07
2023-02-11T14:25:42.407Z,6.18
2023-02-11T14:31:11.265Z,5.00
2023-02-11T14:36:22.883Z,6.35
2023-02-11T14:41:35.610Z,5.95
2023-02-11T14:46:38.845Z,6.40
2023-02-11T14:51:41.839Z,6.18
2023-02-11T14:57:12.024Z,6.40
2023-02-11T15:02:22.944Z,7.15
2023-02-11T15:07:25.863Z,7.00
2023-02-11T15:12:29.032Z,6.60
2023-02-11T15:17:32.671Z,7.60
2023-02-11T15:22:37.162Z,6.90
2023-02-11T15:27:46.446Z,7.05
2023-02-11T15:32:51.050Z,6.60
2023-02-11T15:37:53.566Z,6.97
2023-02-11T15:43:09.453Z,5.88
2023-02-11T15:48:17.889Z,6.10
2023-02-11T15:53:23.408Z,7.38
2023-02-11T15:58:25.901Z,7.15
2023-02-11T16:03:33.123Z,7.30
2023-02-11T16:08:38.449Z,7.63
2023-02-11T16:13:47.915Z,7.00
2023-02-11T16:19:04.251Z,7.38
2023-02-11T16:24:08.605Z,8.07
2023-02-11T16:29:17.545Z,7.57
2023-02-11T16:34:24.010Z,7.38
2023-02-11T16:39:26.338Z,7.32
2023-02-11T16:44:29.722Z,8.57
2023-02-11T16:49:37.062Z,7.57
2023-02-11T16:59:41.875Z,7.65
2023-02-11T17:04:44.777Z,9.38
2023-02-11T17:09:47.566Z,8.95
2023-02-11T17:14:50.166Z,8.23
2023-02-11T17:19:52.707Z,9.60
2023-02-11T17:24:57.338Z,10.15
2023-02-11T17:29:59.986Z,9.75
2023-02-11T17:35:02.799Z,9.70
2023-02-11T17:40:06.772Z,8.43
2023-02-11T17:45:09.888Z,9.68
2023-02-11T17:50:12.581Z,8.93
2023-02-11T17:55:18.165Z,9.93
2023-02-11T18:00:21.378Z,9.10
2023-02-11T18:05:26.122Z,10.75
2023-02-11T18:10:28.843Z,9.85
2023-02-11T18:15:33.381Z,9.93
2023-02-11T18:20:35.976Z,9.70
2023-02-11T18:25:42.139Z,10.23
2023-02-11T18:30:44.829Z,10.00
2023-02-11T18:35:49.470Z,10.85
2023-02-11T18:40:52.678Z,11.35
2023-02-11T18:45:55.227Z,10.93
2023-02-11T18:50:58.040Z,10.77
2023-02-11T18:56:01.513Z,11.35
2023-02-11T19:01:16.402Z,11.43
2023-02-11T19:06:25.783Z,12.00
2023-02-11T19:11:54.355Z,11.80
2023-02-11T19:16:58.905Z,11.05
2023-02-11T19:22:02.791Z,11.02
2023-02-11T19:27:05.878Z,11.27
2023-02-11T19:32:08.593Z,10.98
2023-02-11T19:37:14.196Z,10.75
2023-02-11T19:42:16.874Z,10.82
2023-02-11T19:47:20.337Z,12.43
2023-02-11T19:52:23.269Z,12.43
2023-02-11T19:57:25.531Z,11.30
2023-02-11T20:02:29.317Z,11.70
2023-02-11T20:07:31.714Z,11.57
2023-02-11T20:12:34.663Z,11.18
2023-02-11T20:17:37.541Z,10.23
2023-02-11T20:22:40.477Z,11.20
2023-02-11T20:27:42.974Z,9.85
2023-02-11T20:32:45.445Z,9.65
2023-02-11T20:37:48.738Z,9.90
2023-02-11T20:42:51.811Z,11.18
2023-02-11T20:47:55.340Z,10.73
2023-02-11T20:52:57.630Z,11.18
2023-02-11T20:58:00.545Z,10.60
2023-02-11T21:03:05.536Z,10.68
2023-02-11T21:08:07.927Z,10.00
2023-02-11T21:13:10.291Z,11.18
2023-02-11T21:18:14.092Z,10.15
2023-02-11T21:23:17.986Z,11.60
2023-02-11T21:28:26.746Z,10.35
2023-02-11T21:33:30.568Z,10.52
2023-02-11T21:38:35.005Z,10.30
2023-02-11T21:43:37.428Z,10.07
2023-02-11T21:48:40.127Z,11.95
2023-02-11T21:53:43.531Z,11.90
2023-02-11T21:58:46.590Z,12.85
2023-02-11T22:03:50.558Z,12.15
2023-02-11T22:08:55.234Z,11.82
2023-02-11T22:13:58.102Z,10.55
2023-02-11T22:19:03.095Z,10.20
2023-02-11T22:24:07.031Z,10.88
2023-02-11T22:29:09.589Z,9.38
2023-02-11T22:34:11.926Z,11.93
2023-02-11T22:39:18.571Z,11.40
2023-02-11T22:44:21.768Z,10.55
2023-02-11T22:49:25.356Z,12.35
2023-02-11T22:54:27.911Z,11.15
2023-02-11T22:59:30.301Z,11.50
2023-02-11T23:04:33.670Z,11.73
2023-02-11T23:09:36.142Z,10.93
2023-02-11T23:14:38.925Z,11.18
2023-02-11T23:19:42.084Z,11.05
2023-02-11T23:24:44.943Z,11.27
2023-02-11T23:29:47.908Z,10.88
2023-02-11T23:34:51.800Z,10.48
2023-02-11T23:39:54.129Z,10.35
2023-02-11T23:44:57.563Z,10.55
2023-02-11T23:50:01.190Z,11.93
2023-02-11T23:55:06.490Z,10.95
